Time;durP1;ratioP1;P1;durP2;ratioP2;P2;SDS_P1;SDS_P2;PMS_P1;PMS_P2;Temp;Humidity;BMP_temperature;BMP_pressure;BME280_temperature;BME280_humidity;BME280_pressure;Samples;Min_cycle;Max_cycle;Signal;HPM_P1;HPM_P2
2021/01/07 00:02:08;;;;;;;19.65;8.40;;;;;;;-0.64;93.44;100546.56;5160246;27;20321;-60
2021/01/07 00:04:35;;;;;;;8.98;5.30;;;;;;;-0.62;93.56;100543.38;5157800;27;20229;-61
2021/01/07 00:07:02;;;;;;;11.25;5.53;;;;;;;-0.62;93.52;100538.31;5160289;27;20224;-61
2021/01/07 00:09:29;;;;;;;11.35;6.20;;;;;;;-0.46;92.92;100545.53;5158274;27;20234;-61
2021/01/07 00:11:56;;;;;;;10.10;5.80;;;;;;;-0.49;92.64;100540.25;5160435;27;20230;-61
2021/01/07 00:14:23;;;;;;;11.63;5.80;;;;;;;-0.34;93.18;100534.66;5157385;27;20340;-60
2021/01/07 00:16:50;;;;;;;9.90;5.20;;;;;;;-0.32;93.21;100533.13;5159661;27;20271;-61
2021/01/07 00:19:18;;;;;;;8.93;4.85;;;;;;;-0.39;92.64;100529.22;5156565;27;20237;-61
2021/01/07 00:21:44;;;;;;;11.35;5.95;;;;;;;-0.27;92.66;100526.78;5159871;27;20245;-61
2021/01/07 00:24:11;;;;;;;9.45;5.28;;;;;;;-0.15;92.70;100522.69;5157612;27;20321;-61
2021/01/07 00:26:38;;;;;;;10.23;5.60;;;;;;;-0.12;91.57;100527.13;5159267;27;20650;-61
2021/01/07 00:29:06;;;;;;;8.77;4.60;;;;;;;-0.16;92.25;100528.53;5157532;27;20325;-61
2021/01/07 00:31:32;;;;;;;12.45;5.75;;;;;;;0.08;91.50;100525.31;5159236;27;20195;-61
2021/01/07 00:33:59;;;;;;;8.73;5.00;;;;;;;-0.14;91.55;100523.59;5150865;27;20313;-61
2021/01/07 00:36:27;;;;;;;7.65;4.60;;;;;;;-0.15;91.53;100521.84;5159454;27;20309;-61
2021/01/07 00:38:53;;;;;;;8.75;4.80;;;;;;;-0.19;91.69;100523.25;5157192;27;20234;-61
2021/01/07 00:41:21;;;;;;;8.10;4.47;;;;;;;-0.10;91.29;100519.66;5159470;27;20640;-61
2021/01/07 00:43:48;;;;;;;7.47;4.60;;;;;;;-0.04;92.17;100525.22;5154060;27;20233;-61
2021/01/07 00:46:15;;;;;;;7.95;4.57;;;;;;;-0.06;91.35;100517.50;5158858;27;20221;-61
2021/01/07 00:48:42;;;;;;;9.85;5.38;;;;;;;-0.09;90.95;100514.72;5157232;27;20319;-61
2021/01/07 00:51:08;;;;;;;8.50;4.90;;;;;;;0.02;91.53;100510.50;5159340;27;20248;-61
2021/01/07 00:53:36;;;;;;;9.55;5.10;;;;;;;-0.08;90.95;100508.88;5132162;27;20236;-61
2021/01/07 00:56:03;;;;;;;8.98;5.15;;;;;;;0.02;90.62;100509.59;5150730;27;20218;-61
2021/01/07 00:58:29;;;;;;;8.05;4.60;;;;;;;-0.18;91.19;100504.72;5157461;27;20237;-61
2021/01/07 01:00:56;;;;;;;9.30;4.72;;;;;;;-0.17;91.77;100506.47;5158719;27;20245;-61
2021/01/07 01:03:23;;;;;;;8.25;4.60;;;;;;;0.04;90.80;100508.97;5156682;27;20257;-61
2021/01/07 01:05:50;;;;;;;11.43;5.50;;;;;;;-0.01;90.82;100515.31;5137794;27;20233;-61
2021/01/07 01:08:17;;;;;;;8.38;4.55;;;;;;;-0.25;91.06;100517.66;5136260;27;20265;-61
2021/01/07 01:10:45;;;;;;;7.35;4.38;;;;;;;-0.18;91.46;100513.97;5139029;27;20213;-61
2021/01/07 01:13:12;;;;;;;8.20;4.00;;;;;;;-0.22;90.84;100509.38;5156694;27;20277;-61
2021/01/07 01:15:39;;;;;;;9.18;4.90;;;;;;;-0.17;91.29;100519.16;5158150;27;20264;-61
2021/01/07 01:18:09;;;;;;;7.35;3.95;;;;;;;0.07;90.76;100509.22;5155525;27;20241;-61
2021/01/07 01:20:35;;;;;;;8.93;4.53;;;;;;;-0.16;90.66;100505.72;5158398;27;20201;-61
2021/01/07 01:23:05;;;;;;;11.88;4.88;;;;;;;-0.10;90.61;100504.44;5156402;27;20229;-61
2021/01/07 01:25:33;;;;;;;8.50;4.28;;;;;;;-0.18;91.03;100506.34;5157850;27;20226;-60
2021/01/07 01:28:01;;;;;;;7.45;3.90;;;;;;;-0.26;91.60;100513.31;5156830;27;20234;-61
2021/01/07 01:30:28;;;;;;;9.68;4.60;;;;;;;-0.10;91.13;100509.50;5158894;27;20263;-61
2021/01/07 01:32:55;;;;;;;7.20;4.40;;;;;;;-0.15;91.60;100510.03;5156283;27;20225;-61
2021/01/07 01:35:23;;;;;;;9.30;4.90;;;;;;;-0.16;91.11;100513.31;5157944;27;20228;-61
2021/01/07 01:37:49;;;;;;;8.80;4.50;;;;;;;-0.25;91.03;100510.06;5156684;27;20333;-61
2021/01/07 01:40:16;;;;;;;14.15;6.68;;;;;;;-0.33;91.88;100514.50;5158265;27;20209;-61
2021/01/07 01:42:47;;;;;;;9.00;4.68;;;;;;;-0.42;91.80;100509.56;5156900;27;20240;-61
2021/01/07 01:45:15;;;;;;;7.63;3.92;;;;;;;-0.10;91.42;100505.31;5158032;27;20524;-61
2021/01/07 01:47:42;;;;;;;7.80;4.22;;;;;;;-0.31;91.57;100509.56;5156220;27;20198;-61
2021/01/07 01:50:09;;;;;;;9.00;4.40;;;;;;;-0.31;91.87;100509.56;5157402;27;20201;-61
2021/01/07 01:52:37;;;;;;;7.57;4.05;;;;;;;-0.24;91.96;100505.84;5155736;27;20194;-61
2021/01/07 01:55:04;;;;;;;8.73;4.10;;;;;;;-0.19;91.59;100502.03;5157513;27;20205;-61
2021/01/07 01:57:32;;;;;;;7.82;4.03;;;;;;;-0.13;90.89;100494.94;5156203;27;20233;-61
2021/01/07 01:59:59;;;;;;;7.63;4.28;;;;;;;-0.18;91.21;100502.19;5157481;27;20229;-61
2021/01/07 02:02:31;;;;;;;7.65;4.30;;;;;;;-0.24;90.89;100504.22;5156274;27;20222;-62
2021/01/07 02:04:58;;;;;;;10.45;5.10;;;;;;;-0.21;91.71;100501.03;5157510;27;20320;-61
2021/01/07 02:07:25;;;;;;;5.80;3.63;;;;;;;-0.15;91.60;100499.88;5156166;27;20280;-62
2021/01/07 02:09:52;;;;;;;7.20;3.60;;;;;;;-0.14;91.53;100501.63;5158099;27;20230;-61
2021/01/07 02:12:19;;;;;;;6.30;3.70;;;;;;;-0.26;91.03;100503.19;5158028;27;20194;-61
2021/01/07 02:14:47;;;;;;;5.93;3.20;;;;;;;-0.18;91.25;100497.09;5156188;27;20312;-61
2021/01/07 02:17:15;;;;;;;6.30;3.80;;;;;;;-0.11;91.10;100497.59;5157806;27;20205;-61
2021/01/07 02:19:42;;;;;;;14.27;6.05;;;;;;;-0.12;91.06;100505.97;5155612;27;20318;-62
2021/01/07 02:22:14;;;;;;;7.53;4.10;;;;;;;-0.14;91.18;100501.63;5157483;27;20222;-61
2021/01/07 02:24:41;;;;;;;9.48;4.03;;;;;;;-0.07;90.74;100494.53;5154898;27;20260;-61
2021/01/07 02:27:08;;;;;;;22.40;11.02;;;;;;;-0.10;91.09;100499.38;5156561;27;20222;-61
2021/01/07 02:29:36;;;;;;;24.02;11.10;;;;;;;0.10;90.62;100500.97;5149639;27;20237;-61
2021/01/07 02:32:04;;;;;;;7.22;4.15;;;;;;;-0.10;90.70;100491.75;5157449;27;20200;-61
2021/01/07 02:34:31;;;;;;;8.60;4.50;;;;;;;-0.10;90.65;100494.28;5155373;27;20233;-61
2021/01/07 02:36:58;;;;;;;9.38;4.90;;;;;;;-0.22;90.79;100490.00;5157517;27;20260;-61
2021/01/07 02:39:26;;;;;;;8.00;4.07;;;;;;;-0.30;91.07;100493.56;5155725;27;20248;-61
2021/01/07 02:41:53;;;;;;;9.85;5.63;;;;;;;-0.27;91.36;100486.19;5157318;27;20214;-61
2021/01/07 02:44:21;;;;;;;6.20;3.83;;;;;;;-0.07;91.37;100489.44;5155426;27;20238;-61
2021/01/07 02:46:47;;;;;;;7.70;4.05;;;;;;;-0.16;91.09;100485.44;5157385;27;20218;-61
2021/01/07 02:49:14;;;;;;;8.63;4.25;;;;;;;-0.25;91.50;100482.16;5155595;27;20241;-61
2021/01/07 02:51:41;;;;;;;8.30;4.13;;;;;;;-0.31;91.42;100485.06;5157201;27;20293;-60
2021/01/07 02:54:08;;;;;;;9.68;4.47;;;;;;;-0.38;91.62;100487.88;5151941;27;20312;-61
2021/01/07 02:56:36;;;;;;;8.13;4.18;;;;;;;-0.24;91.50;100485.56;5157222;27;20301;-60
2021/01/07 02:59:02;;;;;;;8.75;4.78;;;;;;;-0.27;91.50;100488.72;5155551;27;20320;-60
2021/01/07 03:01:29;;;;;;;10.60;5.10;;;;;;;-0.35;91.53;100493.22;5158831;27;20257;-60
2021/01/07 03:03:56;;;;;;;9.18;4.80;;;;;;;-0.24;90.91;100486.47;5159416;27;20320;-60
2021/01/07 03:06:22;;;;;;;10.60;5.13;;;;;;;-0.35;91.12;100492.31;5161534;27;20530;-60
2021/01/07 03:08:49;;;;;;;10.77;5.10;;;;;;;-0.28;91.75;100489.50;5159000;27;20265;-61
2021/01/07 03:11:16;;;;;;;8.30;4.65;;;;;;;-0.58;92.44;100483.69;5161100;27;20197;-61
2021/01/07 03:13:44;;;;;;;11.63;5.40;;;;;;;-0.45;92.08;100485.59;5159495;27;20261;-61
2021/01/07 03:16:11;;;;;;;9.85;4.97;;;;;;;-0.55;92.62;100483.97;5160752;27;20251;-61
2021/01/07 03:18:37;;;;;;;8.70;4.35;;;;;;;-0.25;91.83;100483.78;5155320;27;20234;-61
2021/01/07 03:21:04;;;;;;;10.32;5.15;;;;;;;-0.29;91.30;100482.66;5161012;27;20198;-61
2021/01/07 03:23:31;;;;;;;10.43;5.63;;;;;;;-0.20;91.38;100483.41;5158917;27;20234;-61
2021/01/07 03:25:58;;;;;;;9.48;5.30;;;;;;;-0.35;91.20;100489.78;5160339;27;20228;-61
2021/01/07 03:28:25;;;;;;;9.52;5.28;;;;;;;-0.36;91.38;100485.47;5159275;27;20528;-61
2021/01/07 03:30:52;;;;;;;9.18;4.60;;;;;;;-0.23;91.57;100478.09;5160739;27;20201;-61
2021/01/07 03:33:19;;;;;;;8.15;4.25;;;;;;;-0.44;91.59;100475.59;5159138;27;20309;-61
2021/01/07 03:35:46;;;;;;;10.40;4.90;;;;;;;-0.48;92.22;100476.09;5160383;27;20232;-61
2021/01/07 03:38:13;;;;;;;8.57;4.72;;;;;;;-0.20;91.39;100473.25;5158989;27;20230;-61
2021/01/07 03:40:39;;;;;;;9.88;4.75;;;;;;;-0.24;91.14;100476.31;5160522;27;20198;-61
2021/01/07 03:43:06;;;;;;;7.75;4.10;;;;;;;-0.25;90.86;100474.56;5159275;27;20241;-61
2021/01/07 03:45:32;;;;;;;7.78;4.03;;;;;;;-0.27;91.19;100476.06;5160166;27;20218;-61
2021/01/07 03:48:00;;;;;;;13.38;6.80;;;;;;;-0.34;91.56;100473.78;5158579;27;20250;-61
2021/01/07 03:50:27;;;;;;;6.72;3.83;;;;;;;-0.44;91.64;100470.53;5160487;27;20295;-61
2021/01/07 03:52:54;;;;;;;11.15;5.18;;;;;;;-0.32;92.06;100467.19;5158090;27;20681;-61
2021/01/07 03:55:20;;;;;;;11.85;5.57;;;;;;;-0.32;91.61;100467.19;5160294;27;20224;-61
2021/01/07 03:57:47;;;;;;;7.47;4.40;;;;;;;-0.25;91.83;100468.59;5158538;27;20324;-62
2021/01/07 04:00:15;;;;;;;18.85;8.55;;;;;;;-0.23;91.49;100469.59;5160000;27;20240;-61
2021/01/07 04:02:42;;;;;;;17.73;7.78;;;;;;;-0.17;91.30;100467.53;5158910;27;20222;-62
2021/01/07 04:05:10;;;;;;;15.77;7.68;;;;;;;-0.19;91.08;100475.03;5159796;27;20309;-61
2021/01/07 04:07:38;;;;;;;7.55;3.90;;;;;;;-0.28;91.08;100469.22;5150306;27;20233;-61
2021/01/07 04:10:06;;;;;;;10.05;4.93;;;;;;;-0.30;91.45;100468.22;5160508;27;20235;-61
2021/01/07 04:12:33;;;;;;;9.38;5.20;;;;;;;-0.33;91.55;100470.50;5157885;27;20285;-61
2021/01/07 04:15:01;;;;;;;7.60;4.00;;;;;;;-0.31;91.52;100469.84;5159846;27;20562;-61
2021/01/07 04:17:27;;;;;;;14.07;6.68;;;;;;;-0.22;91.43;100464.63;5158237;27;20198;-61
2021/01/07 04:19:54;;;;;;;9.98;5.40;;;;;;;-0.31;91.19;100458.84;5159834;27;20321;-61
2021/01/07 04:22:21;;;;;;;12.57;5.88;;;;;;;-0.31;91.49;100462.25;5159941;27;20714;-61
2021/01/07 04:24:48;;;;;;;10.00;4.82;;;;;;;-0.19;91.21;100464.00;5157869;27;20242;-60
2021/01/07 04:27:15;;;;;;;8.57;4.43;;;;;;;-0.22;91.09;100464.63;5159948;27;20560;-60
2021/01/07 04:29:43;;;;;;;10.10;5.00;;;;;;;-0.14;91.01;100461.06;5158553;27;20654;-61
2021/01/07 04:32:10;;;;;;;8.90;4.82;;;;;;;-0.03;90.44;100461.03;5159137;27;20190;-61
2021/01/07 04:34:37;;;;;;;9.50;4.03;;;;;;;-0.06;90.91;100456.59;5157322;27;20245;-60
2021/01/07 04:37:04;;;;;;;9.25;4.93;;;;;;;-0.18;90.84;100461.59;5159363;27;20254;-60
2021/01/07 04:39:31;;;;;;;9.20;4.45;;;;;;;-0.22;90.90;100458.66;5157825;27;20233;-61
2021/01/07 04:41:58;;;;;;;9.13;5.05;;;;;;;-0.14;90.35;100463.59;5159756;27;20521;-61
2021/01/07 04:44:25;;;;;;;8.00;4.38;;;;;;;-0.20;90.62;100454.63;5158139;27;20254;-61
2021/01/07 04:46:52;;;;;;;7.53;4.78;;;;;;;-0.18;90.75;100459.06;5159755;27;20222;-61
2021/01/07 04:49:19;;;;;;;7.30;3.95;;;;;;;-0.31;90.93;100459.72;5157734;27;20234;-61
2021/01/07 04:51:45;;;;;;;7.85;4.03;;;;;;;-0.29;90.99;100462.38;5159367;27;20675;-61
2021/01/07 04:54:14;;;;;;;8.02;4.03;;;;;;;-0.09;91.04;100460.56;5157185;27;20247;-61
2021/01/07 04:56:41;;;;;;;10.43;4.70;;;;;;;-0.03;90.42;100454.34;5159576;27;20249;-62
2021/01/07 04:59:08;;;;;;;7.10;4.15;;;;;;;-0.11;90.39;100454.47;5157035;27;20310;-61
2021/01/07 05:01:35;;;;;;;13.25;6.70;;;;;;;0.00;90.25;100453.69;5158980;27;20628;-61
2021/01/07 05:04:01;;;;;;;8.20;4.32;;;;;;;-0.16;90.06;100457.53;5157367;27;20568;-61
2021/01/07 05:06:28;;;;;;;9.43;4.80;;;;;;;-0.27;91.42;100455.78;5159141;27;20218;-61
2021/01/07 05:08:59;;;;;;;9.45;4.38;;;;;;;-0.38;91.87;100459.09;5156848;27;20287;-61
2021/01/07 05:11:27;;;;;;;8.25;4.53;;;;;;;-0.25;91.22;100459.34;5159108;27;20194;-61
2021/01/07 05:13:58;;;;;;;6.78;4.00;;;;;;;-0.22;91.11;100459.56;5157217;27;20702;-61
2021/01/07 05:16:25;;;;;;;8.43;4.32;;;;;;;-0.19;91.21;100459.84;5158517;27;20565;-62
2021/01/07 05:18:51;;;;;;;8.55;4.80;;;;;;;-0.16;91.17;100460.06;5157272;27;20312;-61
2021/01/07 05:21:20;;;;;;;8.38;4.20;;;;;;;-0.25;91.00;100458.44;5158838;27;20286;-61
2021/01/07 05:23:47;;;;;;;30.20;13.95;;;;;;;-0.04;91.24;100459.28;5157010;27;20246;-61
2021/01/07 05:26:17;;;;;;;9.38;4.47;;;;;;;-0.16;90.84;100457.53;5158417;27;20210;-62
2021/01/07 05:28:46;;;;;;;13.15;6.05;;;;;;;-0.10;91.03;100463.84;5157083;27;20238;-61
2021/01/07 05:31:13;;;;;;;17.85;8.38;;;;;;;-0.23;91.03;100457.81;5158735;27;20506;-61
2021/01/07 05:33:40;;;;;;;9.68;5.22;;;;;;;-0.22;91.53;100458.66;5156883;27;20317;-61
2021/01/07 05:36:17;;;;;;;9.90;4.68;;;;;;;-0.16;91.16;100456.63;5158389;27;20309;-61
2021/01/07 05:38:44;;;;;;;7.25;3.65;;;;;;;-0.07;90.60;100456.47;5156716;27;20240;-61
2021/01/07 05:41:12;;;;;;;7.00;3.70;;;;;;;-0.02;90.47;100458.63;5158512;27;20202;-61
2021/01/07 05:43:39;;;;;;;7.85;3.83;;;;;;;-0.02;90.68;100456.09;5156887;27;20230;-61
2021/01/07 05:46:07;;;;;;;9.77;4.65;;;;;;;-0.11;90.41;100449.41;5157927;27;20233;-61
2021/01/07 05:48:34;;;;;;;8.00;4.20;;;;;;;-0.07;90.36;100452.31;5157328;27;20308;-61
2021/01/07 05:51:04;;;;;;;7.30;4.35;;;;;;;-0.15;90.60;100459.28;5158377;27;20221;-60
2021/01/07 05:53:30;;;;;;;7.80;4.15;;;;;;;-0.25;90.86;100458.44;5156234;27;20317;-61
2021/01/07 05:55:57;;;;;;;10.60;5.05;;;;;;;-0.11;90.56;100462.09;5157701;27;20228;-61
2021/01/07 05:58:24;;;;;;;8.95;3.60;;;;;;;-0.15;90.19;100456.75;5156766;27;20238;-61
2021/01/07 06:00:52;;;;;;;8.95;3.33;;;;;;;-0.27;90.50;100455.78;5158021;27;20316;-61
2021/01/07 06:03:19;;;;;;;7.05;3.40;;;;;;;-0.32;91.18;100455.41;5156356;27;20650;-61
2021/01/07 06:05:48;;;;;;;8.45;4.25;;;;;;;-0.32;91.84;100451.97;5157727;27;20305;-61
2021/01/07 06:08:16;;;;;;;7.20;3.75;;;;;;;-0.10;90.76;100458.78;5156531;27;20229;-61
2021/01/07 06:10:45;;;;;;;8.38;3.92;;;;;;;-0.20;90.82;100452.97;5158086;27;20559;-61
2021/01/07 06:13:12;;;;;;;10.90;5.55;;;;;;;-0.28;90.63;100454.91;5156016;27;20592;-61
2021/01/07 06:15:38;;;;;;;12.40;5.65;;;;;;;-0.15;90.97;100456.75;5157683;27;20224;-61
2021/01/07 06:18:06;;;;;;;7.60;3.60;;;;;;;-0.25;90.74;100459.34;5156038;27;20234;-61
2021/01/07 06:20:33;;;;;;;7.03;3.78;;;;;;;-0.33;91.33;100456.19;5157835;27;20573;-61
2021/01/07 06:23:01;;;;;;;7.30;3.63;;;;;;;-0.42;91.09;100458.84;5150908;27;20248;-61
2021/01/07 06:25:28;;;;;;;8.38;3.78;;;;;;;-0.29;91.14;100455.63;5157691;27;20711;-61
2021/01/07 06:27:55;;;;;;;14.15;6.78;;;;;;;-0.15;91.28;100459.28;5156209;27;20662;-61
2021/01/07 06:30:34;;;;;;;7.72;3.67;;;;;;;-0.27;91.21;100450.69;5157835;27;20495;-61
2021/01/07 06:33:04;;;;;;;8.18;3.85;;;;;;;-0.16;91.04;100451.56;5155626;27;20225;-61
2021/01/07 06:35:34;;;;;;;8.18;4.03;;;;;;;-0.23;91.42;100446.75;5157894;27;20252;-61
2021/01/07 06:38:02;;;;;;;7.65;4.07;;;;;;;-0.13;90.70;100449.28;5160495;27;20309;-61
2021/01/07 06:40:28;;;;;;;7.40;3.45;;;;;;;-0.29;91.21;100447.16;5161571;27;20288;-61
2021/01/07 06:42:56;;;;;;;8.20;4.20;;;;;;;-0.28;90.67;100447.28;5160201;27;20240;-61
2021/01/07 06:45:23;;;;;;;16.88;4.80;;;;;;;-0.13;90.94;100454.34;5161570;27;20249;-61
2021/01/07 06:47:52;;;;;;;10.18;4.45;;;;;;;-0.11;90.56;100451.94;5160048;27;20229;-61
2021/01/07 06:50:19;;;;;;;10.60;5.30;;;;;;;-0.16;90.86;100452.44;5162010;27;20589;-61
2021/01/07 06:52:46;;;;;;;8.77;3.83;;;;;;;-0.20;90.76;100458.03;5160052;27;20232;-61
2021/01/07 06:55:15;;;;;;;7.75;3.90;;;;;;;-0.14;90.93;100457.66;5161388;27;20508;-61
2021/01/07 06:57:43;;;;;;;7.00;4.20;;;;;;;-0.25;91.09;100460.97;5160412;27;20231;-61
2021/01/07 07:00:11;;;;;;;9.23;4.60;;;;;;;-0.19;91.40;100458.94;5161509;27;20202;-61
2021/01/07 07:02:38;;;;;;;12.52;4.53;;;;;;;-0.46;91.54;100459.34;5159684;27;20304;-61
2021/01/07 07:05:07;;;;;;;9.15;4.65;;;;;;;-0.19;91.10;100462.38;5160890;27;20209;-61
2021/01/07 07:08:05;;;;;;;17.85;7.00;;;;;;;-0.11;90.84;100457.00;5159953;27;20204;-60
2021/01/07 07:11:08;;;;;;;9.38;4.30;;;;;;;-0.18;90.73;100465.78;5161175;27;20198;-61
2021/01/07 07:13:41;;;;;;;7.75;3.78;;;;;;;-0.18;90.72;100470.84;5159790;27;20312;-61
2021/01/07 07:16:09;;;;;;;9.82;4.78;;;;;;;-0.20;90.82;100467.31;5161137;27;20249;-61
2021/01/07 07:18:36;;;;;;;8.90;4.60;;;;;;;-0.07;90.51;100472.59;5159527;27;20237;-61
2021/01/07 07:21:14;;;;;;;8.07;4.07;;;;;;;0.00;90.11;100481.59;5160989;27;20285;-61
2021/01/07 07:23:45;;;;;;;10.75;5.10;;;;;;;-0.12;90.88;100478.06;5159027;27;20245;-61
2021/01/07 07:26:14;;;;;;;13.82;4.85;;;;;;;0.03;90.25;100489.44;5160759;27;20228;-61
2021/01/07 07:28:45;;;;;;;8.85;4.60;;;;;;;0.05;90.02;100479.41;5159664;27;20237;-60
2021/01/07 07:31:13;;;;;;;15.18;5.53;;;;;;;-0.04;90.01;100484.63;5160870;27;20198;-60
2021/01/07 07:33:40;;;;;;;9.00;4.80;;;;;;;-0.02;90.14;100483.09;5159157;27;20229;-61
2021/01/07 07:36:08;;;;;;;11.68;4.45;;;;;;;-0.09;90.42;100491.00;5160393;27;20218;-61
2021/01/07 07:38:36;;;;;;;13.63;4.90;;;;;;;-0.31;90.86;100485.06;5159433;27;20321;-61
2021/01/07 07:41:08;;;;;;;11.43;4.65;;;;;;;0.01;90.46;100488.44;5161031;27;20294;-60
2021/01/07 07:43:36;;;;;;;10.98;5.10;;;;;;;-0.02;89.95;100494.16;5159298;27;20324;-61
2021/01/07 07:46:04;;;;;;;9.05;4.43;;;;;;;-0.22;90.69;100490.00;5160377;27;20305;-60
2021/01/07 07:48:36;;;;;;;9.30;4.60;;;;;;;-0.03;90.57;100496.56;5157704;27;20291;-61
2021/01/07 07:51:07;;;;;;;7.20;4.05;;;;;;;0.39;89.00;100504.91;5161024;27;20202;-61
2021/01/07 07:53:34;;;;;;;7.90;4.35;;;;;;;0.15;89.71;100506.41;5158850;27;20312;-61
2021/01/07 07:56:00;;;;;;;10.63;5.10;;;;;;;0.12;89.58;100504.50;5160364;27;20312;-61
2021/01/07 07:58:27;;;;;;;8.30;4.15;;;;;;;0.11;89.75;100510.34;5159192;27;20233;-61
2021/01/07 08:00:56;;;;;;;11.30;5.38;;;;;;;0.04;89.73;100508.97;5160375;27;20273;-60
2021/01/07 08:03:26;;;;;;;9.15;4.28;;;;;;;0.09;89.64;100507.69;5154676;27;20235;-60
2021/01/07 08:05:54;;;;;;;9.57;4.70;;;;;;;-0.08;90.15;100510.50;5160090;27;20325;-61
2021/01/07 08:08:22;;;;;;;11.50;6.05;;;;;;;0.07;90.01;100514.31;5158469;27;20257;-61
2021/01/07 08:10:49;;;;;;;9.65;4.70;;;;;;;-0.02;90.04;100516.09;5160402;27;20198;-61
2021/01/07 08:13:19;;;;;;;12.23;5.47;;;;;;;0.07;89.46;100519.38;5158831;27;20233;-61
2021/01/07 08:15:49;;;;;;;12.15;6.00;;;;;;;0.08;89.46;100521.13;5159479;27;20309;-61
2021/01/07 08:18:18;;;;;;;9.38;4.93;;;;;;;0.01;89.82;100518.88;5150295;27;20309;-61
2021/01/07 08:20:45;;;;;;;9.43;4.80;;;;;;;-0.01;89.91;100513.69;5160179;27;20202;-60
2021/01/07 08:23:13;;;;;;;13.70;5.72;;;;;;;-0.18;90.63;100522.47;5158231;27;20643;-61
2021/01/07 08:25:40;;;;;;;13.30;6.10;;;;;;;-0.09;90.75;100518.88;5159514;27;20225;-61
2021/01/07 08:28:14;;;;;;;12.75;6.45;;;;;;;0.03;90.19;100516.44;5158398;27;20238;-60
2021/01/07 08:30:46;;;;;;;16.52;7.22;;;;;;;-0.15;90.51;100522.69;5160020;27;20206;-61
2021/01/07 08:33:13;;;;;;;12.32;6.20;;;;;;;0.11;90.04;100520.50;5158085;27;20694;-61
2021/01/07 08:35:41;;;;;;;11.90;4.93;;;;;;;0.25;89.44;100524.13;5159113;27;20536;-60
2021/01/07 08:38:08;;;;;;;17.45;6.25;;;;;;;0.21;89.56;100517.03;5157918;27;20237;-61
2021/01/07 08:40:34;;;;;;;16.55;7.45;;;;;;;0.14;89.61;100515.66;5159714;27;20225;-61
2021/01/07 08:43:10;;;;;;;13.93;6.65;;;;;;;-0.03;89.82;100521.91;5157356;27;20229;-61
2021/01/07 08:45:41;;;;;;;13.70;6.32;;;;;;;-0.06;90.30;100524.22;5159210;27;20221;-61
2021/01/07 08:48:09;;;;;;;13.80;6.47;;;;;;;0.03;90.02;100518.97;5141373;27;20234;-61
2021/01/07 08:50:35;;;;;;;15.10;6.82;;;;;;;0.15;90.05;100526.72;5148048;27;20209;-61
2021/01/07 08:53:08;;;;;;;13.85;6.50;;;;;;;0.19;89.43;100518.56;5157712;27;20244;-61
2021/01/07 08:55:48;;;;;;;13.73;6.93;;;;;;;-0.08;90.10;100516.50;5159226;27;20226;-61
2021/01/07 08:58:22;;;;;;;13.95;6.82;;;;;;;-0.04;90.26;100515.09;5157628;27;20588;-61
2021/01/07 09:00:50;;;;;;;12.98;7.10;;;;;;;-0.10;90.41;100515.47;5159213;27;20245;-61
2021/01/07 09:03:17;;;;;;;14.20;6.10;;;;;;;0.22;90.05;100528.97;5157476;27;20229;-61
2021/01/07 09:05:43;;;;;;;20.80;8.50;;;;;;;0.09;89.47;100520.38;5158958;27;20307;-61
2021/01/07 09:08:12;;;;;;;19.38;8.50;;;;;;;0.06;90.82;100515.03;5157322;27;20271;-61
2021/01/07 09:10:39;;;;;;;16.10;7.13;;;;;;;0.00;90.59;100517.13;5159163;27;20190;-61
2021/01/07 09:13:17;;;;;;;15.55;7.55;;;;;;;-0.12;90.64;100519.53;5157297;27;20562;-61
2021/01/07 09:15:43;;;;;;;95.50;37.03;;;;;;;0.06;90.88;100512.50;5158613;27;20639;-61
2021/01/07 09:18:10;;;;;;;16.33;7.05;;;;;;;0.15;90.07;100516.56;5157055;27;20295;-61
2021/01/07 09:20:37;;;;;;;18.02;8.23;;;;;;;0.23;89.61;100518.03;5158742;27;20626;-61
2021/01/07 09:23:05;;;;;;;16.60;8.55;;;;;;;0.03;90.52;100514.81;5157284;27;20237;-60
2021/01/07 09:25:33;;;;;;;15.70;6.97;;;;;;;0.10;90.06;100514.53;5158357;27;20701;-60
2021/01/07 09:28:00;;;;;;;15.65;6.43;;;;;;;0.04;90.17;100518.25;5157213;27;20240;-61
2021/01/07 09:30:27;;;;;;;17.70;7.22;;;;;;;0.16;89.65;100528.47;5158711;27;20198;-61
2021/01/07 09:32:55;;;;;;;13.25;6.68;;;;;;;0.10;90.10;100524.69;5157049;27;20240;-61
2021/01/07 09:35:22;;;;;;;15.02;7.40;;;;;;;0.12;90.04;100520.59;5158354;27;20246;-60
2021/01/07 09:38:00;;;;;;;15.02;7.20;;;;;;;0.05;90.51;100520.88;5157159;27;20249;-60
2021/01/07 09:40:26;;;;;;;15.35;7.60;;;;;;;0.17;89.68;100520.09;5158562;27;20240;-60
2021/01/07 09:42:54;;;;;;;17.25;7.40;;;;;;;0.27;89.52;100527.69;5156742;27;20510;-61
2021/01/07 09:45:21;;;;;;;12.80;6.00;;;;;;;0.16;89.76;100523.41;5158237;27;20220;-61
2021/01/07 09:47:47;;;;;;;12.07;6.05;;;;;;;0.17;89.66;100525.16;5156777;27;20290;-61
2021/01/07 09:50:14;;;;;;;19.65;7.93;;;;;;;0.35;89.79;100531.72;5158230;27;20488;-61
2021/01/07 09:52:41;;;;;;;18.75;7.70;;;;;;;0.19;89.72;100523.63;5156806;27;20194;-61
2021/01/07 09:55:09;;;;;;;17.55;6.78;;;;;;;0.30;89.20;100527.91;5158029;27;20213;-61
2021/01/07 09:57:37;;;;;;;14.35;7.68;;;;;;;0.00;89.94;100522.19;5156808;27;20293;-61
2021/01/07 10:00:06;;;;;;;11.85;6.05;;;;;;;0.24;90.13;100512.19;5158167;27;20527;-61
2021/01/07 10:02:33;;;;;;;15.20;7.20;;;;;;;0.16;90.03;100516.69;5156491;27;20535;-61
2021/01/07 10:05:00;;;;;;;19.67;6.88;;;;;;;-0.01;90.20;100512.78;5157681;27;20560;-61
2021/01/07 10:07:27;;;;;;;11.65;6.50;;;;;;;-0.05;90.58;100504.03;5156698;27;20204;-62
2021/01/07 10:09:53;;;;;;;15.43;6.82;;;;;;;-0.01;90.87;100510.25;5157540;27;20276;-61
2021/01/07 10:12:20;;;;;;;15.85;6.47;;;;;;;0.06;90.32;100516.72;5157745;27;20205;-61
2021/01/07 10:14:47;;;;;;;13.00;5.60;;;;;;;0.04;90.88;100514.03;5155734;27;20320;-61
2021/01/07 10:17:14;;;;;;;11.27;5.63;;;;;;;-0.04;90.65;100510.88;5157567;27;20695;-60
2021/01/07 10:19:41;;;;;;;12.27;6.35;;;;;;;0.08;90.80;100515.16;5156067;27;20316;-61
2021/01/07 10:22:09;;;;;;;12.88;6.35;;;;;;;0.10;90.19;100508.59;5157837;27;20198;-61
2021/01/07 10:24:39;;;;;;;13.18;7.05;;;;;;;0.06;90.50;100504.03;5155633;27;20306;-61
2021/01/07 10:27:08;;;;;;;10.68;5.05;;;;;;;0.06;90.62;100504.03;5157752;27;20218;-61
2021/01/07 10:29:36;;;;;;;13.70;7.10;;;;;;;0.02;90.71;100505.44;5156524;27;20237;-61
2021/01/07 10:32:04;;;;;;;19.27;6.35;;;;;;;0.18;90.70;100505.00;5157786;27;20237;-61
2021/01/07 10:34:34;;;;;;;12.27;6.22;;;;;;;0.13;90.62;100507.19;5155167;27;20232;-61
2021/01/07 10:37:03;;;;;;;10.60;5.63;;;;;;;0.25;90.19;100504.72;5157503;27;20307;-61
2021/01/07 10:39:32;;;;;;;13.35;5.78;;;;;;;0.27;89.77;100502.31;5155982;27;20651;-61
2021/01/07 10:41:59;;;;;;;11.98;5.65;;;;;;;0.01;90.50;100503.66;5157992;27;20298;-60
2021/01/07 10:44:28;;;;;;;13.75;6.78;;;;;;;0.40;89.80;100509.22;5155663;27;20229;-61
2021/01/07 10:46:58;;;;;;;13.35;5.93;;;;;;;0.28;89.62;100508.25;5157431;27;20635;-60
2021/01/07 10:49:27;;;;;;;20.45;6.70;;;;;;;0.31;89.87;100499.22;5156025;27;20537;-61
2021/01/07 10:52:18;;;;;;;10.38;5.43;;;;;;;0.11;90.55;100506.16;5157885;27;20240;-61
2021/01/07 10:54:55;;;;;;;11.45;4.85;;;;;;;0.34;89.76;100506.19;5155396;27;20270;-61
2021/01/07 10:57:39;;;;;;;12.35;5.88;;;;;;;0.21;89.92;100499.28;5157879;27;20182;-60
2021/01/07 11:00:08;;;;;;;10.00;5.00;;;;;;;0.35;89.79;100493.63;5157237;27;20221;-61
2021/01/07 11:03:13;;;;;;;13.90;6.57;;;;;;;0.31;89.63;100494.16;5156182;27;20225;-60
2021/01/07 11:05:42;;;;;;;10.73;5.63;;;;;;;0.44;89.26;100490.03;5116187;27;20532;-60
2021/01/07 11:08:18;;;;;;;10.15;4.72;;;;;;;0.48;88.73;100494.59;5156159;27;20539;-61
2021/01/07 11:10:50;;;;;;;15.13;6.55;;;;;;;0.47;89.23;100491.16;5157466;27;20284;-61
2021/01/07 11:13:20;;;;;;;15.80;7.30;;;;;;;0.43;89.16;100494.25;5155994;27;20326;-61
2021/01/07 11:15:53;;;;;;;13.95;6.22;;;;;;;0.36;89.28;100487.78;5157315;27;20575;-61
2021/01/07 11:18:25;;;;;;;18.35;7.57;;;;;;;0.21;90.43;100491.66;5155653;27;20313;-61
2021/01/07 11:20:56;;;;;;;12.00;5.78;;;;;;;0.03;90.44;100486.91;5157115;27;20281;-61
2021/01/07 11:23:23;;;;;;;12.93;5.60;;;;;;;0.06;90.71;100484.59;5159229;27;20230;-61
2021/01/07 11:25:50;;;;;;;11.50;5.80;;;;;;;0.20;90.04;100488.22;5160950;27;20596;-61
2021/01/07 11:28:18;;;;;;;8.63;4.45;;;;;;;0.31;89.91;100489.06;5159881;27;20280;-61
2021/01/07 11:30:44;;;;;;;11.25;5.93;;;;;;;0.28;90.31;100491.38;5161249;27;20294;-61